This is the latest recevied weather packets stored in our database for station/object OE3XOC-11. If no packets are shown the sender has not sent any weather packets the latest 10 day(s).
| Time | Temp. | Humidity | Pressure | Rain* | Wind** | Luminosity | Snow |
|---|---|---|---|---|---|---|---|
| 1777962498 | 21.11° C | 36% | 954.5 hPa | - | - | - | - |
| 1777962198 | 20° C | 37% | 954.5 hPa | - | - | - | - |
| 1777961898 | 20.56° C | 35% | 954.5 hPa | - | - | - | - |
| 1777961598 | 20.56° C | 35% | 954.5 hPa | - | - | - | - |
| 1777961298 | 19.44° C | 37% | 954.5 hPa | - | - | - | - |
| 1777960998 | 20° C | 36% | 954.5 hPa | - | - | - | - |
| 1777960698 | 20.56° C | 35% | 954.5 hPa | - | - | - | - |
| 1777960398 | 20.56° C | 36% | 954.4 hPa | - | - | - | - |
| 1777960098 | 20° C | 37% | 954.4 hPa | - | - | - | - |
| 1777959798 | 20° C | 37% | 954.5 hPa | - | - | - | - |
| 1777959498 | 19.44° C | 37% | 954.5 hPa | - | - | - | - |
| 1777959198 | 20° C | 37% | 954.5 hPa | - | - | - | - |
| 1777958898 | 19.44° C | 39% | 954.4 hPa | - | - | - | - |
| 1777958598 | 18.89° C | 39% | 954.4 hPa | - | - | - | - |
| 1777958298 | 17.22° C | 44% | 954.4 hPa | - | - | - | - |
| 1777957998 | 18.33° C | 41% | 954.4 hPa | - | - | - | - |
| 1777957698 | 17.78° C | 41% | 954.4 hPa | - | - | - | - |
| 1777957398 | 20° C | 37% | 954.3 hPa | - | - | - | - |
| 1777957098 | 20° C | 37% | 954.3 hPa | - | - | - | - |
| 1777956798 | 20.56° C | 36% | 954.3 hPa | - | - | - | - |
| 1777956498 | 21.11° C | 34% | 954.3 hPa | - | - | - | - |
| 1777956198 | 22.22° C | 32% | 954.3 hPa | - | - | - | - |
| 1777955898 | 21.67° C | 34% | 954.3 hPa | - | - | - | - |
| 1777955598 | 21.11° C | 34% | 954.3 hPa | - | - | - | - |
| 1777955298 | 21.67° C | 33% | 954.2 hPa | - | - | - | - |
* Rain since midnight (hover to see other rain measurements)
** Current wind speed in m/s (hover to see current wind gust speed)